Time;durP1;ratioP1;P1;durP2;ratioP2;P2;SDS_P1;SDS_P2;PMS_P1;PMS_P2;Temp;Humidity;BMP_temperature;BMP_pressure;BME280_temperature;BME280_humidity;BME280_pressure;Samples;Min_cycle;Max_cycle;Signal;HPM_P1;HPM_P2
2022/07/08 00:00:41;;;;;;;3.85;2.60;;;28.00;99.90;;;;;;4179353;28;20052;-68
2022/07/08 00:02:45;;;;;;;5.30;2.88;;;28.00;99.90;;;;;;4170886;28;20041;-68
2022/07/08 00:04:50;;;;;;;6.35;3.08;;;28.00;99.90;;;;;;4170925;28;20052;-68
2022/07/08 00:06:59;;;;;;;5.47;2.55;;;28.10;99.90;;;;;;4164459;28;20132;-68
2022/07/08 00:09:03;;;;;;;6.05;2.70;;;28.10;99.90;;;;;;4155305;28;20583;-68
2022/07/08 00:11:08;;;;;;;6.63;3.08;;;28.20;99.90;;;;;;4157615;28;20047;-68
2022/07/08 00:13:15;;;;;;;5.82;3.50;;;28.20;99.90;;;;;;4157781;28;20041;-68
2022/07/08 00:15:21;;;;;;;4.88;2.60;;;28.30;99.90;;;;;;4156666;28;20088;-69
2022/07/08 00:17:25;;;;;;;4.82;2.63;;;28.30;99.90;;;;;;4172360;28;20134;-70
2022/07/08 00:19:33;;;;;;;5.60;3.15;;;28.30;99.90;;;;;;4160970;28;20049;-69
2022/07/08 00:21:38;;;;;;;7.60;3.15;;;28.40;99.90;;;;;;4174240;28;20701;-71
2022/07/08 00:23:42;;;;;;;5.25;2.65;;;28.50;99.90;;;;;;4173082;28;20495;-70
2022/07/08 00:25:51;;;;;;;5.93;2.47;;;28.50;99.90;;;;;;4172686;28;20052;-70
2022/07/08 00:27:56;;;;;;;7.75;3.10;;;28.60;99.90;;;;;;4174013;28;20048;-70
2022/07/08 00:30:01;;;;;;;4.70;2.08;;;28.60;99.90;;;;;;4172481;28;20043;-71
2022/07/08 00:32:08;;;;;;;7.40;2.53;;;28.60;99.90;;;;;;4172727;28;20079;-70
2022/07/08 00:34:12;;;;;;;4.85;2.35;;;28.60;99.90;;;;;;4172951;28;20068;-69
2022/07/08 00:36:17;;;;;;;5.22;2.88;;;28.70;99.90;;;;;;4174122;28;20053;-71
2022/07/08 00:38:25;;;;;;;4.82;2.10;;;28.70;99.90;;;;;;4171700;28;20049;-70
2022/07/08 00:40:30;;;;;;;3.28;2.00;;;28.70;99.90;;;;;;4174230;28;20053;-70
2022/07/08 00:42:37;;;;;;;5.35;2.50;;;28.70;99.90;;;;;;4172778;28;20590;-70
2022/07/08 00:44:45;;;;;;;5.57;2.40;;;28.80;99.90;;;;;;4174443;28;20311;-70
2022/07/08 00:46:50;;;;;;;4.68;2.45;;;28.90;99.90;;;;;;4172956;28;20276;-70
2022/07/08 00:48:55;;;;;;;6.47;2.50;;;28.80;99.90;;;;;;4171848;28;20121;-70
2022/07/08 00:51:03;;;;;;;6.38;2.28;;;29.00;99.90;;;;;;4171686;28;20049;-70
2022/07/08 00:53:08;;;;;;;4.03;1.98;;;29.00;99.90;;;;;;4156095;28;20063;-70
2022/07/08 00:55:13;;;;;;;2.97;2.03;;;29.00;99.90;;;;;;4172414;28;20462;-70
2022/07/08 00:57:37;;;;;;;6.75;2.20;;;29.10;99.90;;;;;;4142604;28;20050;-69
2022/07/08 00:59:43;;;;;;;5.18;2.22;;;29.20;99.90;;;;;;4172447;28;20065;-70
2022/07/08 01:01:47;;;;;;;6.45;2.28;;;29.30;99.90;;;;;;4155935;28;20045;-70
2022/07/08 01:03:57;;;;;;;7.65;2.28;;;29.30;99.90;;;;;;4173855;28;20351;-70
2022/07/08 01:06:02;;;;;;;4.13;2.47;;;29.40;99.90;;;;;;4171970;28;20136;-71
2022/07/08 01:08:06;;;;;;;10.43;4.00;;;29.50;99.90;;;;;;4173172;28;20040;-71
2022/07/08 01:10:15;;;;;;;9.07;3.83;;;29.50;99.90;;;;;;4172157;28;20053;-73
2022/07/08 01:12:20;;;;;;;18.95;5.40;;;29.50;99.90;;;;;;4172829;28;20499;-71
2022/07/08 01:14:25;;;;;;;11.82;3.63;;;29.50;99.90;;;;;;4172274;28;20057;-69
2022/07/08 01:16:33;;;;;;;8.15;3.30;;;29.60;99.90;;;;;;4173476;28;20072;-72
2022/07/08 01:18:39;;;;;;;10.40;3.08;;;29.70;99.90;;;;;;4171643;28;20049;-71
2022/07/08 01:20:46;;;;;;;6.30;3.17;;;29.70;99.90;;;;;;4170702;28;20129;-72
2022/07/08 01:22:54;;;;;;;8.35;3.42;;;29.80;99.90;;;;;;4155925;28;20558;-72
2022/07/08 01:24:58;;;;;;;6.45;3.28;;;29.90;99.90;;;;;;4173154;28;20053;-72
2022/07/08 01:27:03;;;;;;;8.77;3.30;;;29.90;99.90;;;;;;4173451;28;20051;-72
2022/07/08 01:29:08;;;;;;;4.82;3.00;;;30.00;99.90;;;;;;4171863;28;20060;-72
2022/07/08 01:31:13;;;;;;;9.48;3.55;;;30.10;99.90;;;;;;4171860;28;20455;-72
2022/07/08 01:33:18;;;;;;;7.53;3.38;;;30.10;99.90;;;;;;4171392;28;20484;-72
2022/07/08 01:35:26;;;;;;;7.30;3.10;;;30.10;99.90;;;;;;4171269;28;20103;-72
2022/07/08 01:37:30;;;;;;;6.00;3.20;;;30.20;99.90;;;;;;4172989;28;20423;-72
2022/07/08 01:39:38;;;;;;;8.65;3.10;;;30.30;99.90;;;;;;4172433;28;20095;-70
2022/07/08 01:41:46;;;;;;;5.82;3.20;;;30.30;99.90;;;;;;4171646;28;20095;-70
2022/07/08 01:43:55;;;;;;;4.13;2.90;;;30.30;99.90;;;;;;4173185;28;20131;-70
2022/07/08 01:46:00;;;;;;;6.88;3.50;;;30.40;99.90;;;;;;4155208;28;20126;-70
2022/07/08 01:48:06;;;;;;;7.88;3.60;;;30.40;99.90;;;;;;4171165;28;20128;-71
2022/07/08 01:50:11;;;;;;;10.30;3.90;;;30.50;99.90;;;;;;4172602;28;20048;-69
2022/07/08 01:52:15;;;;;;;12.48;3.88;;;30.50;99.90;;;;;;4172659;28;20416;-69
2022/07/08 01:54:22;;;;;;;10.93;4.28;;;30.50;99.90;;;;;;4171317;28;20040;-71
2022/07/08 01:56:26;;;;;;;6.57;3.75;;;30.50;99.90;;;;;;4172371;28;20068;-69
2022/07/08 01:58:31;;;;;;;10.10;3.90;;;30.50;99.90;;;;;;4172316;28;20052;-68
2022/07/08 02:00:37;;;;;;;7.55;3.60;;;30.50;99.90;;;;;;4154907;28;20397;-69
2022/07/08 02:02:42;;;;;;;13.50;4.32;;;30.50;99.90;;;;;;4172874;28;20053;-70
2022/07/08 02:04:49;;;;;;;10.85;4.00;;;30.60;99.90;;;;;;4171215;28;20049;-70
2022/07/08 02:06:57;;;;;;;20.02;5.25;;;30.70;99.90;;;;;;4170629;28;20581;-70
2022/07/08 02:09:03;;;;;;;11.80;4.80;;;30.70;99.90;;;;;;4171221;28;20133;-70
2022/07/08 02:13:28;;;;;;;11.90;4.20;;;30.80;99.90;;;;;;4156372;28;20132;-69
2022/07/08 02:15:32;;;;;;;7.55;4.47;;;30.80;99.90;;;;;;4171002;28;20045;-69
2022/07/08 02:17:39;;;;;;;10.40;5.10;;;30.80;99.90;;;;;;4166847;28;20056;-69
2022/07/08 02:19:49;;;;;;;7.55;4.80;;;30.70;99.90;;;;;;4176795;28;20041;-70
2022/07/08 02:21:54;;;;;;;10.77;5.65;;;30.70;99.90;;;;;;4112478;28;20046;-70
2022/07/08 02:23:58;;;;;;;10.65;6.00;;;30.60;99.90;;;;;;4127722;28;20580;-70
2022/07/08 02:26:06;;;;;;;9.50;6.25;;;30.50;99.90;;;;;;4111998;28;20418;-69
2022/07/08 02:28:11;;;;;;;8.70;6.32;;;30.50;99.90;;;;;;4129211;28;20054;-69
2022/07/08 02:30:16;;;;;;;8.38;5.53;;;30.50;99.90;;;;;;4126797;28;20429;-70
2022/07/08 02:32:22;;;;;;;9.88;5.88;;;30.50;99.90;;;;;;4120468;28;20054;-70
2022/07/08 02:34:27;;;;;;;9.90;5.28;;;30.60;99.90;;;;;;4136936;28;20056;-70
2022/07/08 02:36:32;;;;;;;8.45;5.40;;;30.60;99.90;;;;;;4136891;28;20112;-70
2022/07/08 02:38:39;;;;;;;8.65;5.35;;;30.70;99.90;;;;;;4136833;28;20144;-70
2022/07/08 02:40:45;;;;;;;8.73;5.95;;;30.70;99.90;;;;;;4120255;28;20085;-70
2022/07/08 02:42:50;;;;;;;8.15;5.40;;;30.90;99.90;;;;;;4136622;28;20072;-70
2022/07/08 02:44:57;;;;;;;9.27;5.70;;;30.90;99.90;;;;;;4136574;28;20050;-70
2022/07/08 02:47:05;;;;;;;13.60;6.78;;;31.00;99.90;;;;;;4136133;28;20127;-71
2022/07/08 02:49:09;;;;;;;11.60;6.32;;;31.00;99.90;;;;;;4136603;28;20085;-70
2022/07/08 02:51:15;;;;;;;10.13;6.13;;;31.10;99.80;;;;;;4136710;28;20393;-71
2022/07/08 02:53:19;;;;;;;7.35;5.60;;;31.20;99.70;;;;;;4156705;28;20744;-70
2022/07/08 02:55:23;;;;;;;8.07;5.53;;;31.40;99.40;;;;;;4170362;28;20168;-69
2022/07/08 02:57:28;;;;;;;9.82;6.18;;;31.50;99.20;;;;;;4171152;28;20534;-71
2022/07/08 02:59:33;;;;;;;11.82;5.35;;;31.60;99.00;;;;;;4170466;28;20546;-70
2022/07/08 03:01:38;;;;;;;9.10;5.63;;;31.70;99.10;;;;;;4169800;28;20056;-70
2022/07/08 03:03:44;;;;;;;6.65;4.95;;;31.70;99.10;;;;;;4171834;28;20497;-70
2022/07/08 03:05:51;;;;;;;7.50;5.05;;;31.80;98.60;;;;;;4155394;28;20046;-70
2022/07/08 03:07:55;;;;;;;8.98;5.40;;;31.90;98.40;;;;;;4166609;28;20082;-70
2022/07/08 03:10:05;;;;;;;10.82;5.40;;;32.00;98.10;;;;;;4169661;28;20127;-70
2022/07/08 03:12:10;;;;;;;7.32;5.30;;;32.10;98.10;;;;;;4170266;28;20473;-70
2022/07/08 03:14:14;;;;;;;7.78;5.22;;;32.10;97.90;;;;;;4171318;28;20115;-70
2022/07/08 03:16:24;;;;;;;9.77;5.50;;;32.20;97.90;;;;;;4171544;28;20517;-71
2022/07/08 03:18:34;;;;;;;8.50;6.07;;;32.30;97.90;;;;;;4153457;28;20072;-70
2022/07/08 03:20:39;;;;;;;7.13;5.35;;;32.20;98.00;;;;;;4182458;28;20487;-70
2022/07/08 03:22:50;;;;;;;7.80;5.20;;;32.10;97.90;;;;;;4157776;28;20045;-70
2022/07/08 03:24:54;;;;;;;8.20;5.88;;;32.10;97.60;;;;;;4142430;28;20042;-70
2022/07/08 03:26:59;;;;;;;8.07;5.65;;;32.30;97.60;;;;;;4157844;28;20053;-70
2022/07/08 03:29:05;;;;;;;8.18;5.70;;;32.30;97.40;;;;;;4169700;28;20041;-70
2022/07/08 03:31:09;;;;;;;7.93;5.68;;;32.50;97.40;;;;;;4175755;28;20049;-71
2022/07/08 03:33:16;;;;;;;8.15;5.25;;;32.50;97.20;;;;;;4174814;28;20045;-70
2022/07/08 03:35:22;;;;;;;7.80;5.68;;;32.40;97.40;;;;;;4175651;28;20045;-70
2022/07/08 03:37:27;;;;;;;7.43;5.28;;;32.40;97.40;;;;;;4173063;28;20077;-70
2022/07/08 03:39:31;;;;;;;8.20;5.20;;;32.50;97.20;;;;;;4173809;28;20049;-70
2022/07/08 03:41:40;;;;;;;7.05;4.78;;;32.60;97.00;;;;;;4175643;28;20156;-70
2022/07/08 03:43:50;;;;;;;7.95;4.80;;;32.80;96.80;;;;;;4165299;28;20045;-71
2022/07/08 03:45:55;;;;;;;6.18;4.82;;;32.90;96.40;;;;;;4173684;28;20077;-70
2022/07/08 03:48:13;;;;;;;7.72;5.15;;;32.90;96.50;;;;;;4177302;28;20066;-70
2022/07/08 03:50:18;;;;;;;6.22;4.95;;;32.90;96.20;;;;;;4186346;28;20052;-70
2022/07/08 03:52:23;;;;;;;6.22;5.10;;;32.90;96.30;;;;;;4177051;28;20337;-71
2022/07/08 03:54:30;;;;;;;6.82;4.55;;;33.10;96.20;;;;;;4177767;28;20079;-71
2022/07/08 03:56:35;;;;;;;9.57;4.88;;;33.00;95.80;;;;;;4178760;28;20056;-71
2022/07/08 03:58:39;;;;;;;6.25;4.75;;;33.00;95.90;;;;;;4179123;28;20067;-70
2022/07/08 04:00:45;;;;;;;7.70;5.50;;;32.90;96.20;;;;;;4178746;28;20048;-70
2022/07/08 04:02:50;;;;;;;10.52;4.63;;;33.00;96.10;;;;;;4179400;28;20051;-70
2022/07/08 04:04:54;;;;;;;6.45;4.13;;;33.00;95.00;;;;;;4177873;28;20079;-70
2022/07/08 04:07:03;;;;;;;7.05;5.20;;;33.00;94.60;;;;;;4161724;28;20136;-70
2022/07/08 04:09:08;;;;;;;6.45;4.15;;;33.00;94.80;;;;;;4161167;28;20052;-72
2022/07/08 04:11:13;;;;;;;7.07;4.68;;;33.00;95.40;;;;;;4176022;28;20622;-71
2022/07/08 04:13:23;;;;;;;6.10;4.05;;;33.00;94.80;;;;;;4159915;28;20142;-70
2022/07/08 04:15:28;;;;;;;6.72;4.30;;;33.00;94.40;;;;;;4159989;28;20061;-70
2022/07/08 04:17:33;;;;;;;6.25;4.45;;;32.80;93.70;;;;;;4161271;28;20045;-71
2022/07/08 04:19:40;;;;;;;7.72;4.55;;;32.70;93.90;;;;;;4161361;28;20091;-69
2022/07/08 04:21:45;;;;;;;6.30;4.20;;;32.70;94.10;;;;;;4159432;28;20053;-71
2022/07/08 04:23:49;;;;;;;6.28;4.00;;;32.80;94.50;;;;;;4143638;28;20088;-70
2022/07/08 04:25:56;;;;;;;9.85;4.60;;;33.10;94.50;;;;;;4125517;28;20145;-70
2022/07/08 04:28:03;;;;;;;5.57;3.70;;;33.20;94.50;;;;;;4162912;28;20124;-70
2022/07/08 04:30:08;;;;;;;5.82;4.20;;;33.20;94.30;;;;;;4178536;28;20048;-70
2022/07/08 04:32:17;;;;;;;6.25;3.88;;;33.10;94.30;;;;;;4177423;28;20052;-70
2022/07/08 04:34:22;;;;;;;8.05;4.20;;;33.10;93.80;;;;;;4178792;28;20045;-71
2022/07/08 04:36:26;;;;;;;7.60;4.00;;;33.20;93.70;;;;;;4178472;28;20128;-69
2022/07/08 04:38:41;;;;;;;8.18;3.38;;;33.30;93.70;;;;;;4178750;28;20057;-70
2022/07/08 04:40:46;;;;;;;6.50;4.07;;;33.30;92.80;;;;;;4177172;28;20087;-71
2022/07/08 04:42:51;;;;;;;8.07;3.63;;;33.30;93.20;;;;;;4176949;28;20053;-71
2022/07/08 04:44:58;;;;;;;5.53;3.50;;;33.30;92.90;;;;;;4178083;28;20573;-71
2022/07/08 04:47:03;;;;;;;4.38;3.30;;;33.20;93.00;;;;;;4178059;28;20045;-72
2022/07/08 04:49:10;;;;;;;4.13;3.05;;;33.20;92.40;;;;;;4176690;28;20057;-72
2022/07/08 04:51:19;;;;;;;4.38;3.00;;;33.10;92.60;;;;;;4177992;28;20582;-72
2022/07/08 04:53:31;;;;;;;4.05;3.30;;;33.00;92.60;;;;;;4178259;28;20044;-71
2022/07/08 04:55:36;;;;;;;4.35;2.75;;;32.90;92.90;;;;;;4177737;28;20048;-72
2022/07/08 04:57:45;;;;;;;4.18;2.83;;;32.90;93.20;;;;;;4177882;28;20045;-70
2022/07/08 04:59:51;;;;;;;4.63;2.88;;;32.90;93.20;;;;;;4161756;28;20578;-70
2022/07/08 05:01:56;;;;;;;5.30;3.40;;;32.70;93.40;;;;;;4160023;28;20092;-70
2022/07/08 05:04:05;;;;;;;5.22;3.40;;;32.60;93.60;;;;;;4161671;28;20065;-72
2022/07/08 05:06:10;;;;;;;7.10;3.97;;;32.60;94.20;;;;;;4169751;28;20458;-70
2022/07/08 05:08:16;;;;;;;14.40;4.25;;;32.60;95.70;;;;;;4177734;28;20052;-71
2022/07/08 05:10:25;;;;;;;10.45;4.60;;;32.60;98.00;;;;;;4160601;28;20053;-71
2022/07/08 05:12:29;;;;;;;14.45;6.10;;;32.50;97.90;;;;;;4176490;28;20106;-70
2022/07/08 05:14:34;;;;;;;12.77;6.82;;;32.40;99.00;;;;;;4178004;28;20055;-70
2022/07/08 05:16:43;;;;;;;9.75;5.68;;;32.10;99.20;;;;;;4177978;28;20319;-69
2022/07/08 05:18:47;;;;;;;11.25;5.45;;;31.90;99.50;;;;;;4177729;28;20063;-69
2022/07/08 05:20:52;;;;;;;9.50;5.20;;;31.80;99.40;;;;;;4176347;28;20048;-69
2022/07/08 05:22:59;;;;;;;8.35;4.53;;;31.60;99.80;;;;;;4176298;28;20516;-69
2022/07/08 05:25:07;;;;;;;7.40;4.35;;;31.50;99.90;;;;;;4176377;28;20053;-68
2022/07/08 05:27:11;;;;;;;7.68;4.45;;;31.40;99.80;;;;;;4176299;28;20033;-69
2022/07/08 05:29:18;;;;;;;8.30;4.97;;;31.40;99.80;;;;;;4177682;28;20057;-69
2022/07/08 05:31:23;;;;;;;9.68;6.68;;;31.30;99.60;;;;;;4176051;28;20063;-69
2022/07/08 05:33:27;;;;;;;13.38;7.43;;;31.30;99.90;;;;;;4176213;28;20431;-69
2022/07/08 05:35:36;;;;;;;12.38;7.35;;;31.20;99.90;;;;;;4176235;28;20561;-70
2022/07/08 05:37:41;;;;;;;12.27;6.18;;;31.10;99.90;;;;;;4177655;28;20053;-68
2022/07/08 05:39:45;;;;;;;11.20;5.90;;;31.00;99.90;;;;;;4176385;28;20057;-70
2022/07/08 05:41:54;;;;;;;17.73;7.35;;;30.90;99.90;;;;;;4177243;28;20048;-69
2022/07/08 05:43:58;;;;;;;14.20;6.32;;;30.90;99.90;;;;;;4177418;28;20049;-70
2022/07/08 05:46:03;;;;;;;17.98;5.70;;;30.80;99.90;;;;;;4177238;28;20118;-70
2022/07/08 05:48:11;;;;;;;10.02;4.82;;;30.70;99.90;;;;;;4176702;28;20476;-71
2022/07/08 05:50:16;;;;;;;6.03;3.33;;;30.70;99.90;;;;;;4175845;28;20132;-70
2022/07/08 05:52:22;;;;;;;4.30;2.80;;;30.50;99.90;;;;;;4176110;28;20116;-69
2022/07/08 05:54:36;;;;;;;6.25;2.38;;;30.40;99.90;;;;;;4177295;28;20234;-70
2022/07/08 05:56:41;;;;;;;4.13;1.90;;;30.30;99.90;;;;;;4176007;28;20404;-70
2022/07/08 05:58:46;;;;;;;3.80;2.42;;;30.30;99.90;;;;;;4176726;28;20450;-70
2022/07/08 06:00:52;;;;;;;3.60;1.98;;;30.40;99.90;;;;;;4177379;28;20060;-70
2022/07/08 06:02:56;;;;;;;5.10;2.35;;;30.30;99.90;;;;;;4175805;28;20056;-69
2022/07/08 06:05:01;;;;;;;6.22;4.30;;;30.30;99.90;;;;;;4177046;28;20470;-70
2022/07/08 06:07:10;;;;;;;6.97;4.50;;;30.30;99.90;;;;;;4175040;28;20325;-70
2022/07/08 06:09:14;;;;;;;6.07;3.35;;;30.10;99.90;;;;;;4177327;28;20152;-70
2022/07/08 06:11:19;;;;;;;4.53;1.98;;;30.10;99.90;;;;;;4159785;28;20073;-70
2022/07/08 06:13:27;;;;;;;2.10;1.30;;;29.90;99.90;;;;;;4159599;28;20514;-70
2022/07/08 06:15:34;;;;;;;2.78;1.25;;;29.90;99.90;;;;;;4176814;28;20044;-70
2022/07/08 06:17:39;;;;;;;3.40;1.17;;;29.90;99.90;;;;;;4177143;28;20053;-69
2022/07/08 06:19:48;;;;;;;4.28;1.20;;;29.90;99.90;;;;;;4177397;28;20048;-69
2022/07/08 06:21:52;;;;;;;1.85;1.00;;;29.90;99.90;;;;;;4175253;28;20110;-69
2022/07/08 06:23:56;;;;;;;2.90;1.33;;;29.80;99.90;;;;;;4175466;28;20053;-69
2022/07/08 06:26:03;;;;;;;5.20;1.52;;;29.80;99.90;;;;;;4176948;28;20048;-68
2022/07/08 06:28:09;;;;;;;10.32;2.17;;;29.90;99.90;;;;;;4176943;28;20522;-69
2022/07/08 06:30:14;;;;;;;3.72;1.90;;;29.80;99.90;;;;;;4174476;28;20049;-68
2022/07/08 06:32:20;;;;;;;2.72;1.80;;;29.80;99.90;;;;;;4175494;28;20592;-67
2022/07/08 06:34:25;;;;;;;2.88;1.77;;;29.70;99.90;;;;;;4159154;28;20056;-69
2022/07/08 06:36:34;;;;;;;4.00;1.80;;;29.80;99.90;;;;;;4176361;28;20060;-69
2022/07/08 06:38:39;;;;;;;4.18;2.33;;;29.80;99.90;;;;;;4175627;28;20049;-68
2022/07/08 06:40:47;;;;;;;3.78;2.63;;;29.90;99.90;;;;;;4175103;28;20049;-69
2022/07/08 06:42:52;;;;;;;8.27;4.43;;;30.00;99.90;;;;;;4176553;28;20576;-68
2022/07/08 06:44:58;;;;;;;7.82;5.00;;;30.10;99.90;;;;;;4176366;28;20109;-69
2022/07/08 06:47:04;;;;;;;6.10;3.80;;;30.00;99.90;;;;;;4176486;28;20133;-69
2022/07/08 06:49:08;;;;;;;5.72;4.18;;;30.20;99.90;;;;;;4175002;28;20060;-70
2022/07/08 06:51:15;;;;;;;6.72;4.00;;;30.10;99.90;;;;;;4175143;28;20036;-70
2022/07/08 06:53:20;;;;;;;6.18;4.10;;;30.10;99.90;;;;;;4176148;28;20565;-70
2022/07/08 06:55:38;;;;;;;6.63;3.60;;;30.10;99.90;;;;;;4174846;28;20037;-71
2022/07/08 06:57:45;;;;;;;4.10;2.97;;;30.00;99.90;;;;;;4158908;28;20479;-70
2022/07/08 06:59:49;;;;;;;6.60;3.70;;;30.10;99.90;;;;;;4158517;28;20496;-70
2022/07/08 07:02:15;;;;;;;4.30;3.45;;;30.00;99.90;;;;;;4159661;28;20076;-69
2022/07/08 07:04:21;;;;;;;4.63;3.13;;;30.00;99.90;;;;;;4158598;28;20054;-69
2022/07/08 07:06:26;;;;;;;5.60;2.72;;;30.10;99.90;;;;;;4153866;28;20119;-69
2022/07/08 07:08:30;;;;;;;4.53;2.75;;;30.10;99.90;;;;;;4176312;28;20095;-70
2022/07/08 07:10:37;;;;;;;3.78;2.33;;;30.10;99.90;;;;;;4176036;28;20049;-70
2022/07/08 07:12:41;;;;;;;4.70;2.30;;;29.80;99.90;;;;;;4174644;28;20546;-69
2022/07/08 07:14:46;;;;;;;6.72;4.20;;;29.90;99.90;;;;;;4158420;28;20045;-68
2022/07/08 07:16:54;;;;;;;9.35;6.75;;;29.90;99.90;;;;;;4159052;28;20076;-70
2022/07/08 07:18:59;;;;;;;11.95;7.43;;;30.00;99.90;;;;;;4174969;28;20075;-70
2022/07/08 07:21:04;;;;;;;10.35;6.90;;;30.10;99.90;;;;;;4174619;28;20857;-69
2022/07/08 07:23:12;;;;;;;18.40;12.40;;;30.00;99.90;;;;;;4174869;28;20642;-70
2022/07/08 07:25:30;;;;;;;26.98;20.45;;;30.10;99.90;;;;;;4175222;28;20056;-69
2022/07/08 07:27:36;;;;;;;23.00;16.38;;;30.20;99.90;;;;;;4175935;28;20045;-69
2022/07/08 07:29:45;;;;;;;24.52;17.95;;;30.10;99.90;;;;;;4175367;28;20037;-70
2022/07/08 07:31:49;;;;;;;17.50;12.85;;;29.80;99.90;;;;;;4158245;28;20049;-69
2022/07/08 07:33:54;;;;;;;11.63;8.68;;;29.80;99.90;;;;;;4175982;28;20125;-69
2022/07/08 07:36:00;;;;;;;13.40;10.07;;;29.80;99.90;;;;;;4174725;28;20045;-69
2022/07/08 07:38:06;;;;;;;21.35;15.73;;;29.80;99.90;;;;;;4176022;28;20056;-70
2022/07/08 07:40:10;;;;;;;28.67;20.63;;;29.90;99.90;;;;;;4166874;28;20124;-69
2022/07/08 07:42:19;;;;;;;23.90;16.73;;;29.90;99.90;;;;;;4140427;28;20054;-70
2022/07/08 07:44:24;;;;;;;16.80;12.60;;;29.90;99.90;;;;;;4184051;28;20055;-69
2022/07/08 07:46:28;;;;;;;13.77;10.60;;;30.00;99.90;;;;;;4175677;28;20052;-70
2022/07/08 07:48:38;;;;;;;15.75;9.07;;;30.00;99.90;;;;;;4167561;28;20081;-70
2022/07/08 07:50:42;;;;;;;6.80;5.45;;;30.10;99.90;;;;;;4159339;28;20115;-69
2022/07/08 07:52:47;;;;;;;5.80;3.40;;;30.10;99.90;;;;;;4157986;28;20052;-70
2022/07/08 07:54:53;;;;;;;3.95;2.30;;;30.10;99.90;;;;;;4159310;28;20057;-70
2022/07/08 07:56:59;;;;;;;2.17;1.55;;;30.10;99.90;;;;;;4159281;28;20047;-70
2022/07/08 07:59:09;;;;;;;2.55;1.15;;;30.00;99.90;;;;;;4170887;28;20064;-70
2022/07/08 08:01:17;;;;;;;2.53;1.20;;;30.00;99.90;;;;;;4175473;28;20120;-70
2022/07/08 08:03:22;;;;;;;2.47;1.10;;;29.90;99.90;;;;;;4158313;28;20104;-69
2022/07/08 08:05:26;;;;;;;3.28;1.30;;;29.90;99.90;;;;;;4173972;28;20826;-69
2022/07/08 08:07:36;;;;;;;2.80;1.15;;;29.80;99.90;;;;;;4140608;28;20476;-70
2022/07/08 08:09:41;;;;;;;1.55;1.00;;;29.90;99.90;;;;;;4172862;28;20040;-70
2022/07/08 08:11:45;;;;;;;3.20;1.15;;;30.00;99.90;;;;;;4170861;28;20473;-70
2022/07/08 08:13:54;;;;;;;2.10;1.15;;;29.90;99.90;;;;;;4171205;28;20045;-70
2022/07/08 08:15:58;;;;;;;1.83;1.27;;;29.90;99.90;;;;;;4159082;28;20044;-70
2022/07/08 08:18:03;;;;;;;2.58;1.05;;;29.90;99.90;;;;;;4160299;28;20132;-70
2022/07/08 08:20:11;;;;;;;2.72;1.10;;;29.90;99.90;;;;;;4140625;28;20538;-70
2022/07/08 08:22:16;;;;;;;2.90;1.10;;;29.90;99.90;;;;;;4174114;28;20057;-70
2022/07/08 08:24:20;;;;;;;3.45;1.08;;;30.00;99.90;;;;;;4174481;28;20068;-70
2022/07/08 08:26:28;;;;;;;4.30;1.20;;;30.00;99.90;;;;;;4190071;28;20422;-70
2022/07/08 08:28:33;;;;;;;3.25;1.30;;;30.20;99.90;;;;;;4175376;28;20049;-70
2022/07/08 08:30:38;;;;;;;3.30;1.20;;;30.30;99.90;;;;;;4176018;28;20044;-69
2022/07/08 08:32:46;;;;;;;1.17;0.90;;;30.30;99.90;;;;;;4178214;28;20053;-70
2022/07/08 08:34:51;;;;;;;2.90;1.38;;;30.30;99.90;;;;;;4178421;28;20095;-70
2022/07/08 08:36:55;;;;;;;2.80;1.50;;;30.40;99.90;;;;;;4178475;28;20041;-70
2022/07/08 08:39:05;;;;;;;1.70;1.08;;;30.40;99.90;;;;;;4178677;28;20060;-70
2022/07/08 08:41:09;;;;;;;5.38;1.67;;;30.40;99.90;;;;;;4178479;28;20060;-70
2022/07/08 08:43:14;;;;;;;4.70;1.40;;;30.40;99.90;;;;;;4178289;28;20056;-70
2022/07/08 08:45:22;;;;;;;4.68;1.25;;;30.40;99.90;;;;;;4160462;28;20329;-70
2022/07/08 08:47:28;;;;;;;3.20;1.38;;;30.50;99.90;;;;;;4161098;28;20451;-71
2022/07/08 08:49:34;;;;;;;2.78;1.30;;;30.70;99.90;;;;;;4160126;28;20070;-70
2022/07/08 08:51:44;;;;;;;1.83;1.10;;;30.70;99.90;;;;;;4161291;28;20122;-69
2022/07/08 08:53:53;;;;;;;3.42;1.15;;;30.80;99.90;;;;;;4160861;28;20053;-70
2022/07/08 08:55:59;;;;;;;5.13;1.70;;;31.00;99.90;;;;;;4144671;28;20088;-69
2022/07/08 08:58:08;;;;;;;2.67;1.38;;;31.20;99.90;;;;;;4178733;28;20041;-69
2022/07/08 09:00:21;;;;;;;1.90;1.30;;;31.40;99.90;;;;;;4177469;28;20164;-71
2022/07/08 09:02:26;;;;;;;5.72;1.85;;;31.50;99.70;;;;;;4175966;28;20550;-71
2022/07/08 09:04:35;;;;;;;2.65;1.40;;;31.40;99.70;;;;;;4157702;28;20064;-71
2022/07/08 09:06:40;;;;;;;2.40;1.45;;;31.40;99.80;;;;;;4141444;28;20046;-71
2022/07/08 09:08:45;;;;;;;3.60;1.38;;;31.30;99.80;;;;;;4149593;28;20046;-71
2022/07/08 09:10:49;;;;;;;1.50;1.20;;;31.30;99.90;;;;;;4149694;28;20141;-71
2022/07/08 09:13:06;;;;;;;3.42;1.35;;;31.30;99.30;;;;;;4150011;28;20374;-72
2022/07/08 09:15:11;;;;;;;3.95;1.30;;;31.30;98.90;;;;;;4151488;28;20049;-72
2022/07/08 09:17:21;;;;;;;2.45;1.50;;;31.30;99.20;;;;;;4134010;28;20152;-72
2022/07/08 09:19:26;;;;;;;3.80;1.40;;;31.20;99.40;;;;;;4149649;28;20053;-71
2022/07/08 09:21:31;;;;;;;2.20;1.40;;;31.20;99.40;;;;;;4149862;28;20501;-71
2022/07/08 09:23:40;;;;;;;3.20;2.00;;;31.10;98.90;;;;;;4149922;28;20061;-72
2022/07/08 09:25:47;;;;;;;5.85;1.80;;;31.10;98.90;;;;;;4149380;28;20092;-71
2022/07/08 09:27:52;;;;;;;2.85;1.70;;;31.10;98.60;;;;;;4149877;28;20056;-70
2022/07/08 09:30:01;;;;;;;3.15;1.60;;;31.00;98.80;;;;;;4150261;28;20115;-71
2022/07/08 09:32:13;;;;;;;3.63;1.70;;;30.90;99.90;;;;;;4150000;28;20049;-72
2022/07/08 09:34:21;;;;;;;4.38;1.83;;;30.80;99.90;;;;;;4149532;28;20080;-72
2022/07/08 09:36:29;;;;;;;5.00;3.85;;;30.90;99.90;;;;;;4147231;28;20036;-72
2022/07/08 09:38:37;;;;;;;9.32;3.88;;;30.90;99.70;;;;;;4165051;28;20060;-71
2022/07/08 09:40:42;;;;;;;4.57;3.00;;;30.90;99.90;;;;;;4166698;28;20053;-71
2022/07/08 09:42:49;;;;;;;12.63;5.15;;;30.90;99.90;;;;;;4132395;28;20088;-68
2022/07/08 09:44:55;;;;;;;9.45;5.60;;;31.00;99.90;;;;;;4121658;28;20486;-71
2022/07/08 09:47:00;;;;;;;8.88;6.25;;;31.00;99.70;;;;;;4071042;29;20082;-69
2022/07/08 09:49:07;;;;;;;8.07;6.30;;;31.00;99.40;;;;;;4085162;29;20076;-68
2022/07/08 09:51:15;;;;;;;5.60;4.82;;;31.00;99.00;;;;;;4068618;29;20123;-68
2022/07/08 09:53:23;;;;;;;9.60;4.60;;;30.90;99.00;;;;;;4069666;29;20491;-68
2022/07/08 09:55:32;;;;;;;4.72;3.75;;;30.80;99.10;;;;;;4069440;29;20048;-68
2022/07/08 09:57:37;;;;;;;7.05;3.45;;;30.80;99.30;;;;;;4087435;29;20103;-68
2022/07/08 09:59:42;;;;;;;4.95;3.30;;;30.80;99.40;;;;;;4073468;29;20049;-68
2022/07/08 10:01:56;;;;;;;6.22;2.92;;;30.80;99.10;;;;;;4076089;29;20052;-70
2022/07/08 10:04:01;;;;;;;6.13;3.00;;;30.80;99.10;;;;;;4090721;29;20051;-68
2022/07/08 10:06:06;;;;;;;6.05;3.38;;;30.80;98.60;;;;;;4088542;29;20051;-68
2022/07/08 10:08:15;;;;;;;3.92;2.50;;;30.80;98.30;;;;;;4083884;29;20093;-68
2022/07/08 10:10:20;;;;;;;5.68;3.08;;;30.80;98.30;;;;;;4082794;29;20448;-68
2022/07/08 10:12:25;;;;;;;4.18;2.50;;;30.80;98.20;;;;;;4044414;29;20076;-68
2022/07/08 10:14:31;;;;;;;3.95;2.60;;;30.80;98.20;;;;;;4078402;29;20478;-69
2022/07/08 10:16:37;;;;;;;9.52;3.25;;;30.90;98.60;;;;;;4104053;28;20042;-68
2022/07/08 10:18:45;;;;;;;4.25;3.33;;;30.90;99.60;;;;;;4111632;28;20073;-69
2022/07/08 10:20:56;;;;;;;7.78;5.82;;;30.90;99.90;;;;;;4124562;28;20046;-68
2022/07/08 10:23:07;;;;;;;8.07;4.75;;;30.90;99.90;;;;;;4124249;28;20054;-68
2022/07/08 10:25:12;;;;;;;8.82;5.78;;;30.90;99.90;;;;;;4140279;28;20084;-68
2022/07/08 10:27:23;;;;;;;9.10;5.82;;;30.90;99.90;;;;;;4124395;28;20058;-68
2022/07/08 10:29:32;;;;;;;11.27;6.72;;;30.90;99.90;;;;;;4139991;28;20050;-69
2022/07/08 10:31:52;;;;;;;12.90;8.95;;;30.90;99.90;;;;;;4124293;28;20042;-68
2022/07/08 10:34:01;;;;;;;13.48;8.38;;;30.90;99.90;;;;;;4139997;28;20304;-69
2022/07/08 10:36:06;;;;;;;11.05;5.40;;;30.80;99.90;;;;;;4124088;28;20398;-68
2022/07/08 10:38:11;;;;;;;5.55;3.22;;;30.80;99.90;;;;;;4140294;28;20512;-71
2022/07/08 10:40:43;;;;;;;4.32;3.08;;;30.70;99.90;;;;;;4091717;29;20138;-69
2022/07/08 10:43:04;;;;;;;5.22;3.00;;;30.60;99.90;;;;;;4094250;28;20418;-69
2022/07/08 10:45:16;;;;;;;4.30;2.88;;;30.60;99.90;;;;;;4129901;28;20127;-69
2022/07/08 10:47:29;;;;;;;4.60;2.80;;;30.50;99.90;;;;;;4099518;28;20352;-69
2022/07/08 10:49:44;;;;;;;5.97;2.15;;;30.60;99.90;;;;;;4122663;28;20082;-69
2022/07/08 10:51:49;;;;;;;4.57;2.00;;;30.50;99.90;;;;;;4127856;28;20513;-69
2022/07/08 10:53:57;;;;;;;2.72;1.50;;;30.50;99.90;;;;;;4125725;28;20124;-69
2022/07/08 10:56:02;;;;;;;3.28;1.88;;;30.50;99.90;;;;;;4130470;28;21106;-69
2022/07/08 10:58:07;;;;;;;2.10;1.60;;;30.40;99.90;;;;;;4111255;28;20042;-69
2022/07/08 11:00:15;;;;;;;3.15;1.65;;;30.40;99.90;;;;;;4127757;28;20200;-69